Time;durP1;ratioP1;P1;durP2;ratioP2;P2;SDS_P1;SDS_P2;PMS_P1;PMS_P2;Temp;Humidity;BMP_temperature;BMP_pressure;BME280_temperature;BME280_humidity;BME280_pressure;Samples;Min_cycle;Max_cycle;Signal;HPM_P1;HPM_P2
2023/03/17 00:01:50;;;;;;;8.32;3.67;;;;;;;8.33;57.87;100479.59;5052668;28;20049;-48
2023/03/17 00:04:18;;;;;;;10.70;3.65;;;;;;;8.33;58.08;100487.53;5053314;28;20063;-50
2023/03/17 00:06:46;;;;;;;12.38;3.92;;;;;;;8.48;57.36;100498.50;5053425;28;20037;-49
2023/03/17 00:09:15;;;;;;;11.15;3.97;;;;;;;8.43;58.53;100502.41;5053771;28;20048;-50
2023/03/17 00:11:43;;;;;;;12.05;4.18;;;;;;;8.39;57.68;100524.81;5051092;28;20135;-50
2023/03/17 00:14:10;;;;;;;16.38;4.40;;;;;;;8.46;57.59;100525.09;5052636;28;20055;-50
2023/03/17 00:16:41;;;;;;;10.18;4.13;;;;;;;8.45;58.50;100520.78;5052251;28;20442;-50
2023/03/17 00:19:16;;;;;;;11.40;3.67;;;;;;;8.45;57.58;100513.66;5052374;28;20438;-49
2023/03/17 00:21:44;;;;;;;14.98;3.70;;;;;;;8.44;58.15;100524.38;5053455;28;20482;-51
2023/03/17 00:24:11;;;;;;;9.95;3.95;;;;;;;8.64;57.43;100517.19;5053203;28;20371;-50
2023/03/17 00:26:41;;;;;;;10.00;4.13;;;;;;;8.59;57.25;100519.47;5053567;28;20048;-51
2023/03/17 00:29:08;;;;;;;8.25;3.72;;;;;;;8.45;57.96;100532.19;5051925;28;20049;-52
2023/03/17 00:31:36;;;;;;;9.82;3.83;;;;;;;8.44;58.19;100533.16;5053544;28;20056;-50
2023/03/17 00:34:03;;;;;;;9.20;3.80;;;;;;;8.39;58.68;100538.03;5052573;28;20173;-48
2023/03/17 00:36:31;;;;;;;10.95;3.80;;;;;;;8.46;58.61;100538.31;5053306;28;20123;-53
2023/03/17 00:39:05;;;;;;;10.80;3.78;;;;;;;8.36;58.92;100526.91;5053220;28;20099;-51
2023/03/17 00:41:32;;;;;;;10.95;4.18;;;;;;;8.25;58.61;100526.09;5053413;28;20132;-50
2023/03/17 00:43:59;;;;;;;11.75;3.88;;;;;;;8.34;59.72;100526.22;5053097;28;20041;-53
2023/03/17 00:46:34;;;;;;;14.27;4.28;;;;;;;8.29;59.34;100520.53;5053350;28;20478;-51
2023/03/17 00:49:04;;;;;;;9.52;3.80;;;;;;;8.25;58.89;100510.25;5052937;28;20045;-51
2023/03/17 00:51:31;;;;;;;12.95;3.97;;;;;;;8.25;59.45;100506.78;5053254;28;20122;-52
2023/03/17 00:53:57;;;;;;;10.13;4.00;;;;;;;8.26;59.40;100503.16;5053032;28;20099;-50
2023/03/17 00:56:26;;;;;;;9.32;3.80;;;;;;;8.36;59.01;100498.66;5053216;28;20056;-50
2023/03/17 00:58:53;;;;;;;8.25;3.45;;;;;;;8.32;59.75;100492.00;5053053;28;20052;-49
2023/03/17 01:01:20;;;;;;;11.30;3.78;;;;;;;8.33;59.33;100509.53;5052383;28;20045;-50
2023/03/17 01:03:46;;;;;;;10.80;4.03;;;;;;;8.37;59.37;100515.38;5052752;28;20502;-52
2023/03/17 01:06:15;;;;;;;10.13;3.90;;;;;;;8.48;59.24;100509.06;5052733;28;20045;-52
2023/03/17 01:08:43;;;;;;;10.27;3.75;;;;;;;8.37;59.69;100510.09;5053055;28;20078;-52
2023/03/17 01:11:17;;;;;;;10.38;3.97;;;;;;;8.30;59.48;100488.69;5053310;28;20095;-52
2023/03/17 01:13:46;;;;;;;10.57;3.90;;;;;;;8.29;60.22;100494.94;5053624;28;20041;-52
2023/03/17 01:16:14;;;;;;;15.93;4.32;;;;;;;8.32;60.00;100489.34;5056734;28;20131;-52
2023/03/17 01:18:42;;;;;;;10.25;3.95;;;;;;;8.38;60.06;100472.09;5056687;28;20049;-49
2023/03/17 01:21:08;;;;;;;11.43;4.18;;;;;;;8.35;60.17;100461.78;5056458;28;20041;-50
2023/03/17 01:23:36;;;;;;;11.13;3.80;;;;;;;8.22;60.42;100460.34;5056731;28;20491;-52
2023/03/17 01:26:03;;;;;;;8.25;3.60;;;;;;;8.23;60.79;100461.16;5056682;28;20060;-52
2023/03/17 01:28:30;;;;;;;10.45;3.80;;;;;;;8.21;59.76;100442.81;5056962;28;20482;-49
2023/03/17 01:30:56;;;;;;;10.45;3.78;;;;;;;8.23;59.43;100445.31;5056451;28;20438;-50
2023/03/17 01:33:24;;;;;;;10.48;3.72;;;;;;;8.07;60.47;100422.16;5055456;28;20128;-53
2023/03/17 01:35:51;;;;;;;9.68;4.05;;;;;;;8.22;59.27;100415.41;5056141;28;20480;-50
2023/03/17 01:38:17;;;;;;;11.77;4.13;;;;;;;8.18;60.17;100410.56;5056613;28;20052;-52
2023/03/17 01:40:48;;;;;;;12.15;3.85;;;;;;;8.11;59.47;100412.94;5056315;28;20047;-51
2023/03/17 01:43:28;;;;;;;10.43;4.03;;;;;;;8.04;60.47;100401.28;5056600;28;20059;-53
2023/03/17 01:46:16;;;;;;;11.57;4.10;;;;;;;8.07;60.02;100411.56;5056348;28;20044;-51
2023/03/17 01:48:51;;;;;;;10.07;3.88;;;;;;;8.06;59.76;100404.66;5056557;28;20053;-48
2023/03/17 01:51:26;;;;;;;12.07;4.20;;;;;;;8.05;59.89;100401.16;5055762;28;20041;-52
2023/03/17 01:53:53;;;;;;;9.07;4.30;;;;;;;8.05;59.89;100405.59;5055775;28;20049;-49
2023/03/17 01:56:20;;;;;;;11.40;3.80;;;;;;;8.05;59.99;100402.97;5056328;28;20041;-49
2023/03/17 01:58:50;;;;;;;9.90;3.70;;;;;;;8.04;59.65;100402.16;5056125;28;20048;-53
2023/03/17 02:01:22;;;;;;;10.73;4.13;;;;;;;7.98;59.91;100402.72;5055058;28;20045;-51
2023/03/17 02:03:50;;;;;;;10.30;4.20;;;;;;;8.02;59.54;100397.97;5056131;28;20045;-52
2023/03/17 02:06:17;;;;;;;14.05;3.97;;;;;;;8.02;60.24;100408.53;5055951;28;20045;-53
2023/03/17 02:08:45;;;;;;;11.13;4.10;;;;;;;8.05;59.57;100402.97;5055966;28;20044;-49
2023/03/17 02:11:13;;;;;;;12.05;4.18;;;;;;;8.03;60.06;100397.81;5056058;28;20041;-51
2023/03/17 02:13:40;;;;;;;12.05;4.35;;;;;;;7.97;60.05;100390.50;5052013;28;20052;-50
2023/03/17 02:16:14;;;;;;;10.52;3.90;;;;;;;7.92;60.34;100390.09;5055580;28;20094;-51
2023/03/17 02:18:42;;;;;;;10.23;4.15;;;;;;;8.05;59.90;100395.88;5054850;28;20045;-53
2023/03/17 02:24:18;;;;;;;10.00;3.95;;;;;;;8.05;59.44;100392.41;5070149;28;20375;-50
2023/03/17 02:26:47;;;;;;;11.10;4.25;;;;;;;7.91;60.29;100393.69;5070428;28;20044;-51
2023/03/17 02:29:14;;;;;;;11.02;4.18;;;;;;;7.99;58.95;100409.66;5070355;28;20048;-50
2023/03/17 02:31:43;;;;;;;11.50;4.25;;;;;;;7.91;60.23;100406.91;5070320;28;20048;-48
2023/03/17 02:34:10;;;;;;;9.93;4.25;;;;;;;7.92;59.75;100411.22;5070213;28;20053;-50
2023/03/17 02:36:37;;;;;;;13.25;4.40;;;;;;;7.90;59.66;100420.28;5070459;28;20041;-51
2023/03/17 02:39:04;;;;;;;11.40;4.68;;;;;;;8.02;59.84;100419.94;5069955;28;20037;-51
2023/03/17 02:41:31;;;;;;;11.80;4.22;;;;;;;8.00;60.37;100408.66;5070644;28;20049;-52
2023/03/17 02:43:58;;;;;;;10.00;4.28;;;;;;;7.94;60.14;100401.34;5070137;28;20041;-51
2023/03/17 02:46:25;;;;;;;9.68;4.10;;;;;;;7.86;60.22;100396.78;5069785;28;20087;-51
2023/03/17 02:48:54;;;;;;;13.10;4.07;;;;;;;7.84;60.47;100380.25;5070153;28;20463;-51
2023/03/17 02:51:21;;;;;;;12.50;4.13;;;;;;;7.84;61.20;100377.63;5069482;28;20051;-50
2023/03/17 02:53:47;;;;;;;11.25;4.03;;;;;;;7.74;61.31;100368.91;5069857;28;20032;-52
2023/03/17 02:56:14;;;;;;;9.70;4.30;;;;;;;7.86;60.52;100373.03;5070268;28;20102;-50
2023/03/17 02:58:41;;;;;;;12.75;4.18;;;;;;;7.80;61.03;100378.03;5069604;28;20133;-50
2023/03/17 03:01:08;;;;;;;10.65;4.05;;;;;;;7.79;61.03;100386.97;5069038;28;20406;-52
2023/03/17 03:03:35;;;;;;;11.93;4.07;;;;;;;7.74;59.83;100387.38;5069770;28;20072;-52
2023/03/17 03:06:02;;;;;;;9.30;3.72;;;;;;;7.82;60.45;100397.22;5069732;28;20052;-48
2023/03/17 03:08:29;;;;;;;14.10;4.15;;;;;;;7.79;60.42;100386.97;5069956;28;20049;-49
2023/03/17 03:10:56;;;;;;;13.23;4.00;;;;;;;7.87;60.23;100389.69;5069621;28;20049;-51
2023/03/17 03:13:23;;;;;;;12.48;4.25;;;;;;;7.79;60.10;100381.69;5069526;28;20091;-51
2023/03/17 03:15:50;;;;;;;10.05;4.05;;;;;;;7.76;60.43;100382.78;5069626;28;20110;-51
2023/03/17 03:18:16;;;;;;;12.45;4.20;;;;;;;7.74;60.69;100389.19;5069531;28;20506;-52
2023/03/17 03:20:43;;;;;;;8.80;4.07;;;;;;;7.81;60.03;100377.06;5068834;28;20044;-49
2023/03/17 03:23:11;;;;;;;11.10;3.67;;;;;;;7.82;59.80;100369.03;5068956;28;20053;-51
2023/03/17 03:25:38;;;;;;;9.32;4.18;;;;;;;7.66;60.89;100366.97;5069066;28;20065;-52
2023/03/17 03:28:07;;;;;;;10.10;4.03;;;;;;;7.73;60.35;100369.88;5069047;28;20383;-50
2023/03/17 03:30:35;;;;;;;11.40;3.70;;;;;;;7.74;60.52;100362.78;5069154;28;20041;-48
2023/03/17 03:33:02;;;;;;;10.65;4.10;;;;;;;7.72;60.29;100364.75;5069259;28;20048;-50
2023/03/17 03:35:29;;;;;;;9.82;4.13;;;;;;;7.74;61.31;100365.44;5056094;28;20071;-52
2023/03/17 03:37:56;;;;;;;9.57;3.63;;;;;;;7.79;60.29;100366.66;5056142;28;20055;-50
2023/03/17 03:40:24;;;;;;;11.68;4.13;;;;;;;7.71;60.66;100363.91;5055648;28;20041;-50
2023/03/17 03:42:50;;;;;;;9.55;3.83;;;;;;;7.78;60.44;100386.09;5055415;28;20490;-52
2023/03/17 03:45:17;;;;;;;13.25;5.15;;;;;;;7.79;59.79;100369.28;5055758;28;20056;-51
2023/03/17 03:47:44;;;;;;;11.85;4.28;;;;;;;7.75;60.42;100357.38;5055786;28;20056;-52
2023/03/17 03:50:12;;;;;;;9.70;4.00;;;;;;;7.70;60.92;100370.16;5055525;28;20079;-51
2023/03/17 03:52:39;;;;;;;10.68;3.95;;;;;;;7.77;60.45;100371.25;5055735;28;20395;-52
2023/03/17 03:55:06;;;;;;;8.90;3.63;;;;;;;7.73;60.30;100375.16;5055724;28;20095;-49
2023/03/17 03:57:32;;;;;;;10.75;3.95;;;;;;;7.71;60.23;100382.38;5055472;28;20055;-49
2023/03/17 03:59:59;;;;;;;9.73;3.70;;;;;;;7.72;60.53;100383.22;5054915;28;20407;-49
2023/03/17 04:02:26;;;;;;;12.82;4.20;;;;;;;7.62;60.99;100381.47;5054932;28;20072;-50
2023/03/17 04:04:53;;;;;;;10.38;3.95;;;;;;;7.64;60.44;100391.84;5055138;28;20403;-50
2023/03/17 04:07:20;;;;;;;11.40;3.90;;;;;;;7.67;61.12;100397.66;5055362;28;20048;-51
2023/03/17 04:09:48;;;;;;;9.35;4.13;;;;;;;7.73;60.23;100398.94;5055474;28;20132;-49
2023/03/17 04:12:16;;;;;;;10.95;4.00;;;;;;;7.62;60.70;100389.38;5055065;28;20033;-48
2023/03/17 04:14:43;;;;;;;10.70;4.20;;;;;;;7.70;60.53;100393.94;5051698;28;20045;-50
2023/03/17 04:17:11;;;;;;;9.77;4.10;;;;;;;7.67;61.07;100394.22;5055242;28;20045;-50
2023/03/17 04:19:38;;;;;;;10.70;4.00;;;;;;;7.69;60.25;100393.09;5053984;28;20516;-48
2023/03/17 04:22:06;;;;;;;9.68;3.72;;;;;;;7.77;60.06;100391.56;5055002;28;20049;-51
2023/03/17 04:24:33;;;;;;;10.40;3.80;;;;;;;7.66;60.30;100385.47;5054638;28;20479;-51
2023/03/17 04:27:01;;;;;;;9.15;3.70;;;;;;;7.63;60.86;100377.00;5054716;28;20075;-48
2023/03/17 04:29:30;;;;;;;10.02;3.70;;;;;;;7.71;60.10;100385.00;5054649;28;20041;-49
2023/03/17 04:31:57;;;;;;;10.43;4.10;;;;;;;7.68;60.70;100395.88;5055131;28;20071;-50
2023/03/17 04:34:24;;;;;;;12.55;4.10;;;;;;;7.69;60.39;100385.19;5054651;28;20037;-51
2023/03/17 04:36:50;;;;;;;9.43;3.92;;;;;;;7.56;61.45;100379.38;5054765;28;20045;-51
2023/03/17 04:39:17;;;;;;;8.63;3.67;;;;;;;7.51;61.78;100381.59;5054443;28;20527;-50
2023/03/17 04:41:45;;;;;;;11.13;3.83;;;;;;;7.60;61.72;100387.84;5054831;28;20102;-51
2023/03/17 04:44:12;;;;;;;15.95;3.92;;;;;;;7.59;61.95;100384.38;5054632;28;20060;-52
2023/03/17 04:46:38;;;;;;;11.52;4.30;;;;;;;7.58;62.03;100385.34;5053364;28;20095;-50
2023/03/17 04:49:05;;;;;;;9.93;3.90;;;;;;;7.50;61.47;100386.06;5054619;28;20051;-51
2023/03/17 04:51:32;;;;;;;9.63;3.65;;;;;;;7.57;61.89;100390.78;5054320;28;20086;-48
2023/03/17 04:54:00;;;;;;;11.40;4.30;;;;;;;7.63;60.72;100377.81;5054666;28;20041;-49
2023/03/17 04:56:27;;;;;;;10.40;4.10;;;;;;;7.58;61.25;100379.22;5054380;28;20076;-52
2023/03/17 04:58:56;;;;;;;10.95;4.20;;;;;;;7.57;61.05;100373.13;5054162;28;20041;-51
2023/03/17 05:01:22;;;;;;;11.95;4.38;;;;;;;7.63;60.93;100382.28;5053569;28;20391;-52
2023/03/17 05:03:49;;;;;;;10.45;4.05;;;;;;;7.57;60.46;100378.41;5053742;28;20037;-50
2023/03/17 05:06:16;;;;;;;8.68;3.88;;;;;;;7.53;61.71;100384.97;5054068;28;20103;-52
2023/03/17 05:08:43;;;;;;;11.68;4.05;;;;;;;7.59;61.63;100380.91;5054291;28;20045;-51
2023/03/17 05:11:11;;;;;;;11.80;4.20;;;;;;;7.54;61.00;100373.41;5053534;28;20099;-52
2023/03/17 05:13:40;;;;;;;9.60;3.95;;;;;;;7.60;60.54;100374.63;5054325;28;20128;-49
2023/03/17 05:16:08;;;;;;;13.05;4.35;;;;;;;7.56;61.17;100382.00;5054039;28;20132;-52
2023/03/17 05:18:36;;;;;;;10.90;4.35;;;;;;;7.49;61.01;100386.19;5053992;28;20060;-49
2023/03/17 05:21:05;;;;;;;11.85;4.30;;;;;;;7.60;60.72;100388.66;5053456;28;20041;-49
2023/03/17 05:23:32;;;;;;;15.07;4.10;;;;;;;7.48;60.65;100387.19;5052877;28;20095;-50
2023/03/17 05:25:58;;;;;;;11.18;4.60;;;;;;;7.54;61.61;100388.41;5052341;28;20076;-50
2023/03/17 05:28:25;;;;;;;9.77;4.05;;;;;;;7.50;61.38;100388.69;5053762;28;20041;-52
2023/03/17 05:30:53;;;;;;;10.25;4.20;;;;;;;7.53;61.03;100394.66;5053575;28;20056;-49
2023/03/17 05:33:20;;;;;;;9.20;3.97;;;;;;;7.51;60.78;100400.06;5053551;28;20045;-50
2023/03/17 05:35:47;;;;;;;11.32;4.10;;;;;;;7.58;60.71;100403.81;5053581;28;20106;-49
2023/03/17 05:38:14;;;;;;;12.13;4.30;;;;;;;7.48;61.42;100395.94;5053235;28;20072;-50
2023/03/17 05:40:42;;;;;;;16.50;4.25;;;;;;;7.49;60.95;100394.97;5053746;28;20045;-49
2023/03/17 05:43:09;;;;;;;9.38;4.10;;;;;;;7.50;61.41;100391.34;5053382;28;20056;-49
2023/03/17 05:45:36;;;;;;;11.32;4.18;;;;;;;7.48;61.10;100395.94;5053213;28;20458;-53
2023/03/17 05:48:03;;;;;;;11.23;4.78;;;;;;;7.48;61.26;100380.09;5053442;28;20049;-51
2023/03/17 05:50:30;;;;;;;10.65;4.05;;;;;;;7.47;61.55;100386.34;5053202;28;20120;-51
2023/03/17 05:52:58;;;;;;;9.75;4.30;;;;;;;7.56;61.21;100379.38;5053210;28;20438;-52
2023/03/17 05:55:25;;;;;;;11.95;4.10;;;;;;;7.43;61.36;100382.31;5053464;28;20064;-52
2023/03/17 05:57:51;;;;;;;9.85;3.95;;;;;;;7.42;62.00;100388.59;5052894;28;20041;-51
2023/03/17 06:00:20;;;;;;;10.85;4.00;;;;;;;7.50;61.43;100379.94;5051493;28;20040;-51
2023/03/17 06:02:47;;;;;;;11.05;4.72;;;;;;;7.45;61.94;100383.00;5052532;28;20040;-52
2023/03/17 06:05:14;;;;;;;11.25;4.30;;;;;;;7.48;61.40;100374.81;5052797;28;20069;-49
2023/03/17 06:07:41;;;;;;;15.10;4.40;;;;;;;7.52;61.93;100377.19;5053232;28;20045;-52
2023/03/17 06:10:18;;;;;;;12.48;4.03;;;;;;;7.48;61.53;100374.00;5053230;28;20044;-50
2023/03/17 06:12:46;;;;;;;12.50;4.18;;;;;;;7.52;61.19;100379.81;5053267;28;20052;-52
2023/03/17 06:15:13;;;;;;;10.32;3.95;;;;;;;7.57;61.50;100380.22;5049530;28;20049;-49
2023/03/17 06:17:39;;;;;;;10.75;4.28;;;;;;;7.62;61.58;100380.59;5052197;28;20069;-50
2023/03/17 06:20:07;;;;;;;10.77;3.90;;;;;;;7.60;60.89;100379.91;5051719;28;20128;-51
2023/03/17 06:22:34;;;;;;;13.38;4.60;;;;;;;7.60;61.65;100379.91;5052322;28;20053;-51
2023/03/17 06:25:00;;;;;;;9.30;4.30;;;;;;;7.62;61.70;100376.19;5052581;28;20086;-50
2023/03/17 06:27:27;;;;;;;11.02;4.00;;;;;;;7.57;61.35;100381.03;5053049;28;20064;-53
2023/03/17 06:29:53;;;;;;;12.02;4.25;;;;;;;7.66;61.45;100376.72;5052709;28;20072;-50
2023/03/17 06:32:20;;;;;;;10.05;4.00;;;;;;;7.74;61.47;100373.34;5052969;28;20041;-51
2023/03/17 06:34:47;;;;;;;10.15;4.18;;;;;;;7.75;60.78;100372.34;5052531;28;20403;-50
2023/03/17 06:37:15;;;;;;;12.10;4.10;;;;;;;7.79;61.28;100369.28;5052085;28;20045;-51
2023/03/17 06:39:42;;;;;;;11.07;4.40;;;;;;;7.88;60.12;100367.59;5052571;28;20053;-49
2023/03/17 06:42:09;;;;;;;9.23;4.07;;;;;;;7.80;61.37;100370.13;5052417;28;20107;-51
2023/03/17 06:44:36;;;;;;;10.27;4.00;;;;;;;7.83;61.03;100370.66;5052363;28;20044;-51
2023/03/17 06:47:03;;;;;;;10.52;3.67;;;;;;;7.93;60.71;100372.44;5051875;28;20098;-51
2023/03/17 06:49:30;;;;;;;9.23;4.03;;;;;;;8.04;61.12;100370.44;5052040;28;20156;-48
2023/03/17 06:51:57;;;;;;;10.52;4.45;;;;;;;8.07;60.51;100370.13;5051595;28;20483;-52
2023/03/17 06:54:24;;;;;;;12.68;4.68;;;;;;;8.07;60.09;100371.94;5052182;28;20111;-51
2023/03/17 06:56:52;;;;;;;11.10;4.13;;;;;;;8.03;59.80;100383.78;5051973;28;20076;-51
2023/03/17 06:59:19;;;;;;;11.77;4.13;;;;;;;8.13;60.09;100386.38;5052432;28;20041;-49
2023/03/17 07:01:47;;;;;;;10.90;4.38;;;;;;;8.31;60.18;100389.06;5051668;28;20049;-48
2023/03/17 07:04:15;;;;;;;9.10;4.35;;;;;;;8.39;58.77;100387.34;5052216;28;20485;-49
2023/03/17 07:06:42;;;;;;;10.55;4.38;;;;;;;8.29;59.83;100393.69;5038929;28;20164;-52
2023/03/17 07:09:08;;;;;;;8.60;3.83;;;;;;;8.36;58.63;100392.94;5053428;28;20041;-50
2023/03/17 07:11:35;;;;;;;11.43;3.75;;;;;;;8.52;58.00;100387.03;5056011;28;20041;-51
2023/03/17 07:14:02;;;;;;;9.57;3.88;;;;;;;8.57;58.78;100383.94;5056262;28;20106;-51
2023/03/17 07:16:29;;;;;;;9.60;4.03;;;;;;;8.61;58.47;100387.94;5056169;28;20049;-52
2023/03/17 07:18:57;;;;;;;9.88;3.83;;;;;;;8.59;58.51;100393.38;5056068;28;20056;-48
2023/03/17 07:21:23;;;;;;;9.18;3.90;;;;;;;8.81;57.87;100401.88;5055675;28;20049;-52
2023/03/17 07:23:50;;;;;;;17.42;4.00;;;;;;;8.86;57.59;100402.25;5055462;28;20060;-51
2023/03/17 07:26:17;;;;;;;11.40;4.10;;;;;;;8.78;58.00;100395.03;5055778;28;20056;-50
2023/03/17 07:28:43;;;;;;;9.65;4.00;;;;;;;8.95;57.76;100384.59;5055953;28;20053;-49
2023/03/17 07:31:13;;;;;;;10.80;4.07;;;;;;;9.02;56.87;100386.53;5055660;28;20045;-50
2023/03/17 07:33:40;;;;;;;11.07;3.72;;;;;;;9.11;57.24;100379.44;5055894;28;20037;-49
2023/03/17 07:36:07;;;;;;;8.73;4.10;;;;;;;9.15;56.85;100388.78;5055631;28;20122;-50
2023/03/17 07:38:35;;;;;;;10.35;3.90;;;;;;;9.28;56.90;100384.88;5055801;28;20045;-49
2023/03/17 07:41:02;;;;;;;9.18;3.63;;;;;;;9.16;55.64;100382.47;5055576;28;20041;-50
2023/03/17 07:43:29;;;;;;;9.27;3.85;;;;;;;9.23;56.01;100380.88;5055391;28;20446;-53
2023/03/17 07:45:56;;;;;;;10.30;4.20;;;;;;;9.32;56.02;100388.91;5055841;28;20565;-52
2023/03/17 07:48:23;;;;;;;12.57;3.72;;;;;;;9.43;55.81;100378.03;5055627;28;20069;-51
2023/03/17 07:50:50;;;;;;;10.02;4.10;;;;;;;9.62;55.54;100377.00;5054913;28;20440;-52
2023/03/17 07:53:17;;;;;;;10.23;3.92;;;;;;;9.74;55.03;100377.56;5055656;28;20041;-51
2023/03/17 07:55:44;;;;;;;9.13;3.47;;;;;;;9.59;54.53;100369.38;5055405;28;20536;-53
2023/03/17 07:58:10;;;;;;;9.38;3.85;;;;;;;9.58;54.88;100379.13;5055564;28;20127;-53
2023/03/17 08:00:40;;;;;;;10.32;3.92;;;;;;;9.69;54.60;100379.84;5054721;28;20044;-51
2023/03/17 08:03:07;;;;;;;9.95;4.25;;;;;;;9.71;54.83;100376.06;5054616;28;20405;-51
2023/03/17 08:05:36;;;;;;;11.10;3.72;;;;;;;9.74;55.23;100382.88;5055152;28;20045;-52
2023/03/17 08:08:05;;;;;;;11.15;3.50;;;;;;;9.85;54.32;100379.94;5055453;28;20048;-51
2023/03/17 08:10:32;;;;;;;9.55;3.72;;;;;;;9.82;54.82;100374.94;5054137;28;20091;-51
2023/03/17 08:12:59;;;;;;;10.85;3.80;;;;;;;9.78;55.01;100373.59;5037132;28;20049;-51
2023/03/17 08:15:26;;;;;;;7.85;3.67;;;;;;;9.78;54.63;100373.59;5054060;28;20036;-52
2023/03/17 08:17:53;;;;;;;10.57;3.97;;;;;;;9.78;55.23;100387.69;5018263;28;20049;-50
2023/03/17 08:20:20;;;;;;;11.00;4.05;;;;;;;9.85;55.10;100395.84;5034809;28;20045;-49
2023/03/17 08:22:47;;;;;;;14.05;4.05;;;;;;;9.95;55.04;100393.91;5034982;28;20067;-51
2023/03/17 08:25:13;;;;;;;8.25;3.40;;;;;;;10.17;55.46;100397.00;5033506;28;20061;-51
2023/03/17 08:27:41;;;;;;;12.15;3.85;;;;;;;10.20;54.36;100401.94;5026237;28;20043;-52
2023/03/17 08:30:08;;;;;;;12.20;3.97;;;;;;;10.30;53.91;100399.19;4980453;28;20064;-51
2023/03/17 08:32:35;;;;;;;14.70;4.07;;;;;;;10.37;54.31;100393.09;4972135;28;20050;-50
2023/03/17 08:35:03;;;;;;;9.65;3.80;;;;;;;10.45;53.73;100402.06;4951922;28;20146;-51
2023/03/17 08:37:31;;;;;;;8.43;3.63;;;;;;;10.36;53.94;100401.22;4988221;28;20050;-53
2023/03/17 08:39:57;;;;;;;12.10;3.97;;;;;;;10.52;54.29;100403.91;4969865;28;20070;-53
2023/03/17 08:42:24;;;;;;;11.40;3.95;;;;;;;10.63;53.72;100397.47;4955693;28;20051;-52
2023/03/17 08:44:51;;;;;;;12.35;4.20;;;;;;;10.65;53.62;100403.44;4971740;28;20039;-52
2023/03/17 08:47:18;;;;;;;12.80;3.75;;;;;;;10.79;53.86;100398.47;4951461;28;20135;-52
2023/03/17 08:49:44;;;;;;;14.57;4.07;;;;;;;10.90;53.83;100387.56;4971259;28;20124;-50
2023/03/17 08:52:11;;;;;;;10.57;3.90;;;;;;;10.92;52.57;100386.41;4971566;28;20057;-51
2023/03/17 08:54:38;;;;;;;13.48;4.38;;;;;;;11.10;52.62;100380.13;4975268;28;20430;-53
2023/03/17 08:57:04;;;;;;;11.52;4.07;;;;;;;11.22;52.86;100364.66;4970924;28;20050;-52
2023/03/17 08:59:32;;;;;;;8.77;3.80;;;;;;;11.16;51.83;100360.03;4976095;28;20101;-52
2023/03/17 09:02:00;;;;;;;12.05;4.20;;;;;;;11.09;51.58;100370.47;4953854;28;20050;-54
2023/03/17 09:04:27;;;;;;;9.18;4.10;;;;;;;11.20;52.15;100377.28;4966829;28;20049;-50
2023/03/17 09:06:53;;;;;;;9.90;4.00;;;;;;;11.09;52.14;100371.31;4954184;28;20054;-52
2023/03/17 09:09:30;;;;;;;12.50;4.05;;;;;;;11.34;51.97;100372.13;4970351;28;20050;-52
2023/03/17 09:11:56;;;;;;;10.95;4.00;;;;;;;11.52;51.00;100379.06;4960860;28;20500;-51
2023/03/17 09:14:23;;;;;;;9.93;4.22;;;;;;;11.43;51.92;100377.44;4970448;28;20035;-53
2023/03/17 09:16:51;;;;;;;11.93;4.90;;;;;;;11.79;51.06;100380.50;4961361;28;20062;-52
2023/03/17 09:19:17;;;;;;;10.27;4.05;;;;;;;11.92;50.37;100384.50;4968723;28;20060;-50
2023/03/17 09:21:44;;;;;;;11.05;4.20;;;;;;;12.07;50.19;100380.09;4955113;28;20098;-49
2023/03/17 09:24:11;;;;;;;10.82;4.10;;;;;;;12.42;49.40;100375.28;4970230;28;20050;-49
2023/03/17 09:26:38;;;;;;;11.23;4.10;;;;;;;12.54;47.76;100379.19;4955205;28;20053;-50
2023/03/17 09:29:06;;;;;;;11.20;4.15;;;;;;;12.91;48.04;100384.78;4968678;28;20061;-52
2023/03/17 09:31:35;;;;;;;15.77;4.60;;;;;;;13.10;47.26;100365.66;4965936;28;20101;-50
2023/03/17 09:34:03;;;;;;;16.00;4.30;;;;;;;13.54;46.58;100372.09;4975000;28;20054;-50
2023/03/17 09:36:32;;;;;;;12.60;4.20;;;;;;;13.83;46.32;100368.63;4981950;28;20038;-48
2023/03/17 09:38:59;;;;;;;15.95;4.20;;;;;;;14.59;44.09;100376.34;4959796;28;20050;-52
2023/03/17 09:41:43;;;;;;;9.77;3.78;;;;;;;14.80;43.14;100370.19;4959848;28;20129;-51
2023/03/17 09:44:38;;;;;;;9.35;3.72;;;;;;;15.24;41.76;100373.63;4957096;28;20487;-50
2023/03/17 09:47:35;;;;;;;9.65;3.85;;;;;;;15.68;40.77;100357.31;4963358;28;20054;-48
2023/03/17 09:50:10;;;;;;;10.77;3.60;;;;;;;15.77;40.59;100370.53;4989772;28;20050;-49
2023/03/17 09:52:37;;;;;;;13.57;4.13;;;;;;;15.98;40.96;100381.13;4953496;28;20047;-50
2023/03/17 09:55:07;;;;;;;9.75;3.70;;;;;;;15.24;41.06;100382.47;4973821;28;20153;-49
2023/03/17 09:57:36;;;;;;;11.88;3.97;;;;;;;15.11;42.51;100387.72;4947363;28;20050;-49
2023/03/17 10:00:14;;;;;;;10.10;3.35;;;;;;;15.00;42.10;100388.25;4973054;28;20076;-52
2023/03/17 10:02:42;;;;;;;10.98;3.40;;;;;;;14.49;42.77;100384.59;4955451;28;23899;-50
2023/03/17 10:05:30;;;;;;;10.70;3.58;;;;;;;14.41;43.02;100390.06;4984752;28;20523;-50
2023/03/17 10:08:21;;;;;;;9.52;3.88;;;;;;;13.92;44.48;100382.69;4953497;28;20751;-52
2023/03/17 10:11:21;;;;;;;9.02;3.30;;;;;;;13.95;44.57;100382.31;4973561;28;20584;-50
2023/03/17 10:14:27;;;;;;;11.73;3.50;;;;;;;13.77;44.87;100378.19;4948048;28;20173;-52
2023/03/17 10:19:46;;;;;;;12.98;3.78;;;;;;;13.85;45.96;100371.09;5053825;27;20397;-51
2023/03/17 10:22:22;;;;;;;12.00;3.35;;;;;;;14.11;44.95;100370.63;5064570;28;20063;-51
2023/03/17 10:24:53;;;;;;;7.78;3.30;;;;;;;14.33;45.57;100379.50;5066418;28;20048;-51
2023/03/17 10:27:20;;;;;;;11.43;3.47;;;;;;;14.62;44.49;100380.47;5054177;28;20266;-49
2023/03/17 10:29:47;;;;;;;10.25;3.67;;;;;;;15.38;42.75;100374.56;5054723;28;20041;-50
2023/03/17 10:32:14;;;;;;;12.20;3.70;;;;;;;15.90;41.90;100384.81;5071996;28;20048;-52
2023/03/17 10:34:42;;;;;;;10.93;3.55;;;;;;;18.14;37.88;100379.25;5074101;28;20036;-51
2023/03/17 10:37:16;;;;;;;10.27;3.50;;;;;;;19.16;35.17;100384.66;5070147;28;20058;-52
2023/03/17 10:39:50;;;;;;;8.93;3.38;;;;;;;19.66;33.82;100376.53;5056166;28;20091;-51
2023/03/17 10:42:31;;;;;;;12.27;3.72;;;;;;;21.06;32.36;100382.84;5069269;28;20055;-53
2023/03/17 10:45:15;;;;;;;12.63;3.70;;;;;;;20.00;33.87;100370.84;5071827;28;20042;-49
2023/03/17 10:47:47;;;;;;;10.70;3.70;;;;;;;19.09;33.84;100376.66;5054871;28;20402;-52
2023/03/17 10:53:03;;;;;;;9.43;3.10;;;;;;;18.08;36.56;100361.31;5035380;28;20408;-48
2023/03/17 10:55:35;;;;;;;17.60;3.53;;;;;;;18.44;36.78;100360.72;5020307;28;20052;-50
2023/03/17 10:58:23;;;;;;;11.82;3.58;;;;;;;18.48;36.65;100364.66;5033753;28;20044;-52
2023/03/17 11:00:59;;;;;;;12.45;3.70;;;;;;;19.16;34.88;100369.34;5032368;28;20056;-52
2023/03/17 11:03:30;;;;;;;9.18;3.58;;;;;;;19.33;34.40;100364.22;5011371;28;20052;-50
2023/03/17 11:06:03;;;;;;;13.73;3.80;;;;;;;19.74;34.05;100356.63;5038130;28;20583;-49
2023/03/17 11:08:34;;;;;;;12.75;3.58;;;;;;;19.41;34.28;100360.47;5017002;28;20582;-52
2023/03/17 11:11:06;;;;;;;11.77;3.47;;;;;;;19.36;34.27;100344.97;5039213;28;20040;-52
2023/03/17 11:13:33;;;;;;;15.52;3.60;;;;;;;19.23;35.21;100355.03;5009079;28;20045;-51
2023/03/17 11:16:17;;;;;;;15.85;3.63;;;;;;;19.42;34.93;100354.03;5034268;28;20042;-50
2023/03/17 11:18:47;;;;;;;14.90;3.95;;;;;;;19.57;34.68;100342.91;5008286;28;20152;-49
2023/03/17 11:21:22;;;;;;;11.60;4.05;;;;;;;20.44;34.07;100331.09;5031840;28;20091;-49
2023/03/17 11:23:52;;;;;;;11.90;3.42;;;;;;;20.95;32.40;100345.91;5011491;28;20056;-52
2023/03/17 11:26:59;;;;;;;10.13;3.58;;;;;;;20.44;33.22;100348.06;5038787;28;20592;-52
2023/03/17 11:30:05;;;;;;;12.93;3.65;;;;;;;21.68;31.02;100346.50;5002364;28;20059;-51
2023/03/17 11:32:40;;;;;;;13.27;3.50;;;;;;;22.10;29.59;100340.88;5053036;28;20151;-54
2023/03/17 11:35:40;;;;;;;15.10;3.63;;;;;;;23.57;29.98;100337.44;5011185;28;21300;-51
2023/03/17 11:38:18;;;;;;;8.52;3.50;;;;;;;23.67;28.06;100326.75;5034963;28;20044;-52
2023/03/17 11:41:13;;;;;;;9.45;3.55;;;;;;;24.52;27.40;100329.06;5018089;28;20513;-50
2023/03/17 11:44:13;;;;;;;12.27;3.60;;;;;;;24.79;26.79;100320.09;5034618;28;20049;-52